createdAt,value
2018-03-24T00:00:10.629Z,94543.46
2018-03-24T00:02:40.096Z,94538.11
2018-03-24T00:05:09.938Z,94534.63
2018-03-24T00:07:39.421Z,94532.61
2018-03-24T00:10:09.424Z,94523.83
2018-03-24T00:12:39.289Z,94525.18
2018-03-24T00:15:08.774Z,94521.01
2018-03-24T00:17:38.234Z,94515.19
2018-03-24T00:20:07.714Z,94514.02
2018-03-24T00:22:37.160Z,94512.28
2018-03-24T00:25:07.220Z,94504.39
2018-03-24T00:27:36.680Z,94501.95
2018-03-24T00:30:06.528Z,94493.07
2018-03-24T00:32:36.008Z,94490.53
2018-03-24T00:35:05.862Z,94496.59
2018-03-24T00:37:35.317Z,94495.24
2018-03-24T00:40:04.712Z,94485.89
2018-03-24T00:42:34.562Z,94480.83
2018-03-24T00:45:03.787Z,94479.19
2018-03-24T00:47:33.272Z,94475.33
2018-03-24T00:50:02.735Z,94474.85
2018-03-24T00:52:32.598Z,94473.59
2018-03-24T00:55:02.256Z,94471.18
2018-03-24T00:57:31.526Z,94460.45
2018-03-24T01:00:01.009Z,94453.92
2018-03-24T01:02:30.472Z,94454.83
2018-03-24T01:05:00.318Z,94449.91
2018-03-24T01:07:29.438Z,94446.91
2018-03-24T01:09:58.900Z,94444.28
2018-03-24T01:12:28.766Z,94442.02
2018-03-24T01:14:58.236Z,94436.94
2018-03-24T01:17:27.680Z,94432.73
2018-03-24T01:19:57.126Z,94433.75
2018-03-24T01:22:26.587Z,94426.09
2018-03-24T01:24:56.043Z,94424.45
2018-03-24T01:27:25.486Z,94426.02
2018-03-24T01:29:54.960Z,94414.66
2018-03-24T01:32:24.402Z,94414.66
2018-03-24T01:34:53.862Z,94412.97
2018-03-24T01:37:23.320Z,94410.17
2018-03-24T01:39:52.777Z,94405.97
2018-03-24T01:42:22.224Z,94402.60
2018-03-24T01:44:51.673Z,94405.19
2018-03-24T01:47:21.518Z,94399.92
2018-03-24T01:49:51.014Z,94391.48
2018-03-24T01:52:20.469Z,94391.94
2018-03-24T01:54:50.122Z,94386.66
2018-03-24T01:57:19.568Z,94377.50
2018-03-24T01:59:49.024Z,94372.56
2018-03-24T02:02:18.485Z,94379.01
2018-03-24T02:04:48.158Z,94365.88
2018-03-24T02:07:17.829Z,94368.59
2018-03-24T02:09:47.675Z,94362.33
2018-03-24T02:12:17.124Z,94366.16
2018-03-24T02:14:46.574Z,94357.81
2018-03-24T02:17:16.017Z,94355.72
2018-03-24T02:19:45.294Z,94348.34
2018-03-24T02:22:14.411Z,94350.81
2018-03-24T02:27:49.060Z,94337.58
2018-03-24T02:30:18.337Z,94335.73
2018-03-24T02:32:47.623Z,94334.49
2018-03-24T02:35:17.079Z,94328.61
2018-03-24T02:37:46.582Z,94321.19
2018-03-24T02:40:16.233Z,94320.28
2018-03-24T02:42:45.685Z,94308.63
2018-03-24T02:45:15.142Z,94310.91
2018-03-24T02:47:44.608Z,94309.42
2018-03-24T02:50:14.538Z,94312.55
2018-03-24T02:52:44.407Z,94313.41
2018-03-24T02:55:14.073Z,94317.00
2018-03-24T02:57:43.927Z,94311.94
2018-03-24T03:00:13.588Z,94310.73
2018-03-24T03:02:43.445Z,94309.71
2018-03-24T03:05:12.904Z,94318.30
2018-03-24T03:07:42.775Z,94314.59
2018-03-24T03:10:12.426Z,94312.83
2018-03-24T03:12:42.280Z,94309.58
2018-03-24T03:15:11.736Z,94314.93
2018-03-24T03:17:41.198Z,94305.45
2018-03-24T03:20:10.485Z,94301.19
2018-03-24T03:22:39.944Z,94305.57
2018-03-24T03:25:09.803Z,94305.18
2018-03-24T03:27:39.264Z,94297.47
2018-03-24T03:30:13.958Z,94300.49
2018-03-24T03:32:43.234Z,94299.95
2018-03-24T03:35:12.688Z,94294.03
2018-03-24T03:37:42.154Z,94288.66
2018-03-24T03:40:11.616Z,94289.74
2018-03-24T03:42:41.475Z,94285.37
2018-03-24T03:45:10.938Z,94289.60
2018-03-24T03:47:40.997Z,94281.50
2018-03-24T03:50:10.758Z,94282.05
2018-03-24T03:52:40.620Z,94280.23
2018-03-24T03:55:10.086Z,94275.73
2018-03-24T03:57:39.940Z,94280.64
2018-03-24T04:00:09.704Z,94279.77
2018-03-24T04:02:39.572Z,94283.45
2018-03-24T04:05:09.076Z,94282.97
2018-03-24T04:07:38.593Z,94293.05
2018-03-24T04:10:08.582Z,94283.95
2018-03-24T04:12:38.628Z,94286.92
2018-03-24T04:15:08.096Z,94279.72
2018-03-24T04:17:37.553Z,94279.23
2018-03-24T04:20:06.684Z,94278.20
2018-03-24T04:22:36.530Z,94275.61
2018-03-24T04:25:05.792Z,94268.07
2018-03-24T04:27:35.671Z,94270.56
2018-03-24T04:30:04.232Z,94271.05
2018-03-24T04:32:33.695Z,94269.98
2018-03-24T04:35:03.543Z,94265.77
2018-03-24T04:37:32.994Z,94265.81
2018-03-24T04:40:02.458Z,94268.26
2018-03-24T04:42:31.916Z,94268.45
2018-03-24T04:45:01.796Z,94267.45
2018-03-24T04:47:31.255Z,94264.61
2018-03-24T04:50:00.718Z,94264.99
2018-03-24T04:52:30.174Z,94266.17
2018-03-24T04:54:59.653Z,94260.03
2018-03-24T04:57:29.512Z,94265.38
2018-03-24T04:59:58.971Z,94262.25
2018-03-24T05:02:28.830Z,94261.52
2018-03-24T05:04:58.283Z,94253.52
2018-03-24T05:07:28.140Z,94257.29
2018-03-24T05:09:57.586Z,94264.36
2018-03-24T05:12:27.041Z,94262.52
2018-03-24T05:14:56.518Z,94266.25
2018-03-24T05:17:26.375Z,94263.94
2018-03-24T05:19:55.836Z,94265.65
2018-03-24T05:22:25.687Z,94271.15
2018-03-24T05:24:55.358Z,94271.45
2018-03-24T05:27:25.430Z,94264.72
2018-03-24T05:29:54.890Z,94267.63
2018-03-24T05:32:24.343Z,94275.31
2018-03-24T05:34:53.786Z,94265.80
2018-03-24T05:37:23.639Z,94261.45
2018-03-24T05:39:53.095Z,94265.95
2018-03-24T05:42:22.967Z,94267.95
2018-03-24T05:44:52.419Z,94264.11
2018-03-24T05:47:22.282Z,94265.11
2018-03-24T05:49:51.761Z,94275.20
2018-03-24T05:52:21.225Z,94274.85
2018-03-24T05:54:50.689Z,94268.23
2018-03-24T05:57:20.159Z,94277.23
2018-03-24T05:59:50.199Z,94275.59
2018-03-24T06:02:19.645Z,94277.27
2018-03-24T06:04:49.119Z,94283.47
2018-03-24T06:07:18.576Z,94284.36
2018-03-24T06:09:48.496Z,94283.13
2018-03-24T06:12:17.950Z,94284.20
2018-03-24T06:14:47.408Z,94278.66
2018-03-24T06:17:17.248Z,94274.92
2018-03-24T06:19:46.710Z,94285.41
2018-03-24T06:22:16.164Z,94283.63
2018-03-24T06:24:45.613Z,94293.05
2018-03-24T06:27:15.092Z,94291.81
2018-03-24T06:29:44.353Z,94286.73
2018-03-24T06:32:13.993Z,94285.31
2018-03-24T06:34:43.255Z,94295.90
2018-03-24T06:37:19.393Z,94292.84
2018-03-24T06:39:48.869Z,94299.92
2018-03-24T06:42:18.323Z,94296.37
2018-03-24T06:44:47.842Z,94288.00
2018-03-24T06:47:17.911Z,94287.13
2018-03-24T06:49:47.368Z,94289.09
2018-03-24T06:52:16.821Z,94289.12
2018-03-24T06:54:46.266Z,94293.39
2018-03-24T06:57:15.715Z,94292.08
2018-03-24T06:59:45.182Z,94297.61
2018-03-24T07:02:14.668Z,94295.69
2018-03-24T07:04:44.503Z,94294.81
2018-03-24T07:07:13.978Z,94302.02
2018-03-24T07:09:43.420Z,94306.36
2018-03-24T07:12:12.861Z,94308.50
2018-03-24T07:14:42.305Z,94307.48
2018-03-24T07:17:12.155Z,94312.43
2018-03-24T07:19:41.793Z,94312.16
2018-03-24T07:22:11.243Z,94319.89
2018-03-24T07:24:40.692Z,94328.08
2018-03-24T07:27:10.156Z,94324.33
2018-03-24T07:29:39.612Z,94327.90
2018-03-24T07:32:09.061Z,94331.19
2018-03-24T07:34:39.087Z,94334.14
2018-03-24T07:37:08.544Z,94338.70
2018-03-24T07:39:38.018Z,94336.28
2018-03-24T07:42:07.508Z,94336.80
2018-03-24T07:44:37.161Z,94336.03
2018-03-24T07:47:06.275Z,94342.58
2018-03-24T07:49:36.153Z,94350.30
2018-03-24T07:52:05.608Z,94344.47
2018-03-24T07:54:35.459Z,94345.17
2018-03-24T07:57:04.920Z,94337.08
2018-03-24T07:59:34.596Z,94345.87
2018-03-24T08:02:04.052Z,94346.48
2018-03-24T08:04:33.506Z,94348.48
2018-03-24T08:07:02.965Z,94348.14
2018-03-24T08:09:32.413Z,94349.64
2018-03-24T08:12:01.881Z,94344.67
2018-03-24T08:14:31.346Z,94344.22
2018-03-24T08:17:00.814Z,94346.67
2018-03-24T08:19:30.445Z,94351.02
2018-03-24T08:21:59.915Z,94352.26
2018-03-24T08:24:29.370Z,94349.33
2018-03-24T08:26:59.235Z,94355.44
2018-03-24T08:29:28.693Z,94360.36
2018-03-24T08:31:58.545Z,94357.88
2018-03-24T08:34:27.997Z,94360.50
2018-03-24T08:36:57.461Z,94354.51
2018-03-24T08:39:26.915Z,94371.50
2018-03-24T08:41:56.353Z,94369.77
2018-03-24T08:44:25.799Z,94368.82
2018-03-24T08:46:55.242Z,94358.48
2018-03-24T08:49:24.697Z,94360.28
2018-03-24T08:51:54.138Z,94357.39
2018-03-24T08:54:24.003Z,94366.67
2018-03-24T08:56:53.441Z,94360.62
2018-03-24T08:59:22.879Z,94363.67
2018-03-24T09:01:52.332Z,94355.88
2018-03-24T09:04:21.767Z,94354.84
2018-03-24T09:06:51.641Z,94360.23
2018-03-24T09:09:21.083Z,94358.45
2018-03-24T09:11:50.520Z,94359.42
2018-03-24T09:14:19.965Z,94367.79
2018-03-24T09:16:49.428Z,94371.66
2018-03-24T09:19:18.880Z,94369.73
2018-03-24T09:21:48.323Z,94371.40
2018-03-24T09:24:18.178Z,94368.75
2018-03-24T09:26:47.632Z,94376.03
2018-03-24T09:29:17.481Z,94379.14
2018-03-24T09:31:46.924Z,94377.58
2018-03-24T09:34:16.359Z,94370.64
2018-03-24T09:36:46.203Z,94376.81
2018-03-24T09:39:15.655Z,94381.58
2018-03-24T09:41:45.274Z,94378.71
2018-03-24T09:44:15.147Z,94381.80
2018-03-24T09:46:44.603Z,94381.88
2018-03-24T09:49:14.443Z,94381.92
2018-03-24T09:51:44.566Z,94384.09
2018-03-24T09:54:14.031Z,94389.93
2018-03-24T09:56:43.891Z,94381.70
2018-03-24T09:59:13.322Z,94382.69
2018-03-24T10:01:42.757Z,94385.90
2018-03-24T10:04:12.602Z,94383.86
2018-03-24T10:06:42.049Z,94391.37
2018-03-24T10:09:11.502Z,94385.08
2018-03-24T10:11:40.942Z,94381.48
2018-03-24T10:14:10.388Z,94381.09
2018-03-24T10:16:40.230Z,94378.34
2018-03-24T10:19:09.691Z,94377.99
2018-03-24T10:24:50.234Z,94377.77
2018-03-24T10:27:19.690Z,94375.76
2018-03-24T10:29:49.532Z,94372.97
2018-03-24T10:32:18.970Z,94376.00
2018-03-24T10:34:53.704Z,94373.00
2018-03-24T10:37:23.164Z,94375.95
2018-03-24T10:39:52.620Z,94374.63
2018-03-24T10:42:22.136Z,94369.52
2018-03-24T10:44:51.602Z,94364.41
2018-03-24T10:47:21.046Z,94367.70
2018-03-24T10:49:50.298Z,94360.13
2018-03-24T10:52:19.766Z,94366.09
2018-03-24T10:54:49.342Z,94366.41
2018-03-24T10:57:18.802Z,94366.78
2018-03-24T10:59:48.062Z,94368.14
2018-03-24T11:02:17.317Z,94368.20
2018-03-24T11:04:46.964Z,94359.18
2018-03-24T11:07:16.418Z,94366.70
2018-03-24T11:09:45.873Z,94367.36
2018-03-24T11:12:15.325Z,94372.48
2018-03-24T11:14:44.793Z,94365.32
2018-03-24T11:17:14.246Z,94372.27
2018-03-24T11:19:43.690Z,94369.47
2018-03-24T11:22:13.144Z,94357.42
2018-03-24T11:24:42.566Z,94358.88
2018-03-24T11:27:11.922Z,94359.10
2018-03-24T11:29:41.826Z,94356.64
2018-03-24T11:32:11.466Z,94350.48
2018-03-24T11:34:40.915Z,94358.78
2018-03-24T11:37:10.375Z,94352.29
2018-03-24T11:39:39.828Z,94346.39
2018-03-24T11:42:09.266Z,94353.44
2018-03-24T11:44:39.136Z,94346.26
2018-03-24T11:47:08.596Z,94345.42
2018-03-24T11:49:38.448Z,94346.20
2018-03-24T11:52:08.912Z,94345.33
2018-03-24T11:54:45.378Z,94349.85
2018-03-24T11:57:14.833Z,94345.29
2018-03-24T11:59:44.316Z,94339.11
2018-03-24T12:02:14.186Z,94347.67
2018-03-24T12:04:43.929Z,94347.22
2018-03-24T12:07:13.794Z,94348.00
2018-03-24T12:09:43.261Z,94344.57
2018-03-24T12:12:12.722Z,94348.92
2018-03-24T12:14:42.194Z,94352.14
2018-03-24T12:17:11.664Z,94350.75
2018-03-24T12:19:41.782Z,94353.06
2018-03-24T12:22:11.677Z,94353.08
2018-03-24T12:24:42.152Z,94351.10
2018-03-24T12:27:11.615Z,94348.19
2018-03-24T12:29:41.270Z,94353.83
2018-03-24T12:32:10.715Z,94347.90
2018-03-24T12:34:40.170Z,94342.30
2018-03-24T12:37:09.855Z,94351.55
2018-03-24T12:39:39.735Z,94342.02
2018-03-24T12:42:09.191Z,94345.14
2018-03-24T12:44:38.636Z,94344.13
2018-03-24T12:47:08.099Z,94338.27
2018-03-24T12:49:37.958Z,94340.23
2018-03-24T12:52:07.475Z,94336.05
2018-03-24T12:54:36.968Z,94340.91
2018-03-24T12:57:06.440Z,94340.47
2018-03-24T12:59:35.903Z,94348.02
2018-03-24T13:02:05.355Z,94348.91
2018-03-24T13:04:34.807Z,94343.33
2018-03-24T13:07:04.020Z,94348.62
2018-03-24T13:09:33.483Z,94339.63
2018-03-24T13:12:02.943Z,94346.47
2018-03-24T13:14:32.996Z,94343.73
2018-03-24T13:17:02.444Z,94347.98
2018-03-24T13:19:31.888Z,94335.91
2018-03-24T13:22:01.674Z,94336.22
2018-03-24T13:24:31.527Z,94339.73
2018-03-24T13:27:00.977Z,94342.85
2018-03-24T13:29:30.437Z,94340.95
2018-03-24T13:31:59.982Z,94340.88
2018-03-24T13:34:29.589Z,94341.73
2018-03-24T13:36:59.257Z,94342.87
2018-03-24T13:39:28.720Z,94338.89
2018-03-24T13:41:58.194Z,94339.64
2018-03-24T13:44:27.702Z,94342.23
2018-03-24T13:46:57.191Z,94340.06
2018-03-24T13:49:27.638Z,94342.50
2018-03-24T13:51:57.403Z,94342.16
2018-03-24T13:54:26.890Z,94338.36
2018-03-24T13:56:56.738Z,94333.73
2018-03-24T13:59:26.196Z,94335.20
2018-03-24T14:01:55.652Z,94333.00
2018-03-24T14:04:25.120Z,94329.30
2018-03-24T14:06:54.983Z,94325.16
2018-03-24T14:09:24.832Z,94325.05
2018-03-24T14:11:54.285Z,94324.58
2018-03-24T14:14:23.734Z,94324.48
2018-03-24T14:16:53.464Z,94332.51
2018-03-24T14:19:23.338Z,94328.22
2018-03-24T14:21:52.606Z,94331.06
2018-03-24T14:24:22.074Z,94332.23
2018-03-24T14:26:51.253Z,94330.98
2018-03-24T14:29:20.700Z,94336.92
2018-03-24T14:31:50.154Z,94332.38
2018-03-24T14:34:19.628Z,94336.73
2018-03-24T14:36:49.110Z,94333.84
2018-03-24T14:39:18.302Z,94330.39
2018-03-24T14:41:48.146Z,94332.45
2018-03-24T14:44:17.616Z,94333.34
2018-03-24T14:46:47.564Z,94332.28
2018-03-24T14:49:17.704Z,94331.37
2018-03-24T14:51:47.189Z,94326.16
2018-03-24T14:54:16.624Z,94330.07
2018-03-24T14:56:46.118Z,94324.60
2018-03-24T14:59:15.788Z,94332.91
2018-03-24T15:01:44.961Z,94332.74
2018-03-24T15:04:14.414Z,94329.67
2018-03-24T15:06:43.954Z,94333.20
2018-03-24T15:09:13.406Z,94338.03
2018-03-24T15:11:42.889Z,94329.09
2018-03-24T15:14:12.746Z,94333.36
2018-03-24T15:16:42.440Z,94333.13
2018-03-24T15:19:12.660Z,94332.91
2018-03-24T15:21:42.118Z,94339.36
2018-03-24T15:24:11.579Z,94344.47
2018-03-24T15:26:41.044Z,94338.44
2018-03-24T15:29:27.593Z,94340.09
2018-03-24T15:32:13.909Z,94344.87
2018-03-24T15:35:00.144Z,94337.05
2018-03-24T15:37:29.638Z,94340.41
2018-03-24T15:39:59.082Z,94336.48
2018-03-24T15:42:28.531Z,94340.77
2018-03-24T15:44:58.007Z,94341.62
2018-03-24T15:47:27.472Z,94341.46
2018-03-24T15:49:57.343Z,94335.61
2018-03-24T15:52:26.802Z,94340.59
2018-03-24T15:54:56.682Z,94337.26
2018-03-24T15:57:26.166Z,94336.93
2018-03-24T15:59:55.672Z,94339.76
2018-03-24T16:02:25.407Z,94340.25
2018-03-24T16:04:55.394Z,94348.48
2018-03-24T16:07:24.879Z,94348.49
2018-03-24T16:09:54.352Z,94348.80
2018-03-24T16:12:23.841Z,94351.98
2018-03-24T16:14:53.291Z,94363.11
2018-03-24T16:17:22.634Z,94358.19
2018-03-24T16:19:52.126Z,94363.73
2018-03-24T16:22:21.599Z,94360.41
2018-03-24T16:24:51.080Z,94357.47
2018-03-24T16:27:21.004Z,94361.25
2018-03-24T16:29:50.465Z,94362.83
2018-03-24T16:32:19.925Z,94368.60
2018-03-24T16:34:49.379Z,94370.84
2018-03-24T16:37:18.852Z,94376.77
2018-03-24T16:39:48.329Z,94386.80
2018-03-24T16:42:17.804Z,94387.51
2018-03-24T16:44:47.277Z,94383.53
2018-03-24T16:47:16.756Z,94384.40
2018-03-24T16:49:46.230Z,94389.87
2018-03-24T16:52:15.817Z,94394.09
2018-03-24T16:54:45.748Z,94395.56
2018-03-24T16:57:15.230Z,94405.70
2018-03-24T16:59:44.835Z,94406.91
2018-03-24T17:02:14.475Z,94405.76
2018-03-24T17:04:44.371Z,94409.75
2018-03-24T17:07:13.950Z,94416.05
2018-03-24T17:09:43.612Z,94418.99
2018-03-24T17:12:14.266Z,94420.71
2018-03-24T17:14:43.737Z,94422.98
2018-03-24T17:17:13.226Z,94433.22
2018-03-24T17:19:42.755Z,94430.78
2018-03-24T17:22:13.399Z,94438.22
2018-03-24T17:24:43.293Z,94441.33
2018-03-24T17:27:12.754Z,94442.18
2018-03-24T17:29:42.409Z,94443.16
2018-03-24T17:32:12.503Z,94447.22
2018-03-24T17:34:41.989Z,94441.41
2018-03-24T17:37:11.427Z,94441.45
2018-03-24T17:39:40.873Z,94449.12
2018-03-24T17:42:10.357Z,94447.23
2018-03-24T17:44:40.193Z,94444.58
2018-03-24T17:47:09.739Z,94452.73
2018-03-24T17:49:39.273Z,94452.18
2018-03-24T17:52:08.869Z,94458.38
2018-03-24T17:54:38.319Z,94450.55
2018-03-24T17:57:07.795Z,94450.16
2018-03-24T17:59:37.453Z,94457.22
2018-03-24T18:02:07.147Z,94457.13
2018-03-24T18:04:36.809Z,94456.80
2018-03-24T18:07:08.013Z,94469.61
2018-03-24T18:09:37.649Z,94469.03
2018-03-24T18:12:07.137Z,94470.24
2018-03-24T18:14:36.571Z,94472.94
2018-03-24T18:17:06.011Z,94470.84
2018-03-24T18:19:35.472Z,94474.57
2018-03-24T18:22:05.099Z,94474.53
2018-03-24T18:24:34.571Z,94475.12
2018-03-24T18:27:04.014Z,94478.60
2018-03-24T18:29:34.077Z,94480.01
2018-03-24T18:32:03.563Z,94477.69
2018-03-24T18:34:33.253Z,94487.58
2018-03-24T18:37:02.985Z,94487.70
2018-03-24T18:39:32.488Z,94493.02
2018-03-24T18:42:01.444Z,94496.12
2018-03-24T18:44:31.081Z,94497.84
2018-03-24T18:47:00.619Z,94496.81
2018-03-24T18:49:30.055Z,94500.98
2018-03-24T18:51:59.520Z,94501.12
2018-03-24T18:54:29.367Z,94501.48
2018-03-24T18:56:59.367Z,94507.52
2018-03-24T18:59:28.837Z,94509.23
2018-03-24T19:01:58.511Z,94512.64
2018-03-24T19:04:28.371Z,94508.45
2018-03-24T19:06:57.897Z,94509.27
2018-03-24T19:09:27.630Z,94512.61
2018-03-24T19:11:57.559Z,94512.31
2018-03-24T19:14:27.017Z,94512.29
2018-03-24T19:16:56.519Z,94518.78
2018-03-24T19:19:26.105Z,94518.14
2018-03-24T19:21:55.575Z,94520.48
2018-03-24T19:24:25.034Z,94529.63
2018-03-24T19:26:54.779Z,94524.34
2018-03-24T19:29:24.369Z,94531.02
2018-03-24T19:31:54.179Z,94536.41
2018-03-24T19:34:23.773Z,94532.59
2018-03-24T19:36:53.351Z,94534.14
2018-03-24T19:39:23.739Z,94540.02
2018-03-24T19:41:53.988Z,94536.34
2018-03-24T19:44:23.621Z,94540.83
2018-03-24T19:46:53.871Z,94536.98
2018-03-24T19:49:23.717Z,94536.81
2018-03-24T19:51:53.959Z,94534.16
2018-03-24T19:54:23.603Z,94540.18
2018-03-24T19:56:53.183Z,94542.28
2018-03-24T19:59:23.413Z,94547.51
2018-03-24T20:01:53.649Z,94545.78
2018-03-24T20:04:23.548Z,94548.64
2018-03-24T20:06:53.421Z,94550.73
2018-03-24T20:09:23.452Z,94549.57
2018-03-24T20:11:53.265Z,94551.31
2018-03-24T20:14:23.311Z,94550.13
2018-03-24T20:16:53.590Z,94557.53
2018-03-24T20:19:24.711Z,94562.67
2018-03-24T20:21:54.573Z,94553.11
2018-03-24T20:24:24.229Z,94566.11
2018-03-24T20:26:53.897Z,94556.22
2018-03-24T20:29:23.763Z,94560.16
2018-03-24T20:31:53.388Z,94561.59
2018-03-24T20:34:23.446Z,94573.69
2018-03-24T20:36:53.095Z,94568.33
2018-03-24T20:39:22.966Z,94566.48
2018-03-24T20:41:52.849Z,94571.11
2018-03-24T20:44:22.873Z,94571.00
2018-03-24T20:46:53.677Z,94566.62
2018-03-24T20:49:23.305Z,94569.69
2018-03-24T20:51:52.915Z,94578.97
2018-03-24T20:54:22.747Z,94582.46
2018-03-24T20:56:52.360Z,94583.88
2018-03-24T20:59:21.843Z,94576.20
2018-03-24T21:01:51.319Z,94585.30
2018-03-24T21:04:20.797Z,94585.85
2018-03-24T21:06:50.655Z,94590.30
2018-03-24T21:09:20.297Z,94593.17
2018-03-24T21:11:49.796Z,94590.84
2018-03-24T21:14:19.373Z,94592.05
2018-03-24T21:16:48.971Z,94604.70
2018-03-24T21:19:18.449Z,94598.20
2018-03-24T21:21:48.399Z,94604.81
2018-03-24T21:24:17.985Z,94600.20
2018-03-24T21:26:48.063Z,94607.88
2018-03-24T21:29:17.608Z,94605.39
2018-03-24T21:31:47.071Z,94611.77
2018-03-24T21:34:16.531Z,94607.55
2018-03-24T21:36:46.049Z,94609.30
2018-03-24T21:39:15.543Z,94614.09
2018-03-24T21:41:45.231Z,94611.02
2018-03-24T21:44:15.089Z,94614.89
2018-03-24T21:46:44.770Z,94609.45
2018-03-24T21:49:14.344Z,94616.78
2018-03-24T21:51:43.829Z,94621.63
2018-03-24T21:54:13.582Z,94628.17
2018-03-24T21:56:43.442Z,94624.13
2018-03-24T21:59:12.886Z,94623.73
2018-03-24T22:01:42.732Z,94630.87
2018-03-24T22:04:12.171Z,94630.49
2018-03-24T22:06:41.639Z,94627.98
2018-03-24T22:09:11.367Z,94628.95
2018-03-24T22:11:41.163Z,94624.71
2018-03-24T22:14:12.616Z,94620.86
2018-03-24T22:16:42.106Z,94616.27
2018-03-24T22:19:13.452Z,94615.66
2018-03-24T22:21:43.040Z,94622.03
2018-03-24T22:24:12.931Z,94625.53
2018-03-24T22:26:42.877Z,94620.51
2018-03-24T22:29:12.804Z,94618.77
2018-03-24T22:31:42.266Z,94623.40
2018-03-24T22:34:19.129Z,94621.66
2018-03-24T22:36:56.547Z,94632.05
2018-03-24T22:39:32.284Z,94625.89
2018-03-24T22:42:02.513Z,94629.94
2018-03-24T22:44:31.998Z,94636.08
2018-03-24T22:47:03.294Z,94629.91
2018-03-24T22:49:32.893Z,94627.80
2018-03-24T22:52:02.766Z,94627.98
2018-03-24T22:54:32.236Z,94628.34
2018-03-24T22:57:01.792Z,94631.03
2018-03-24T22:59:31.252Z,94629.14
2018-03-24T23:02:00.692Z,94629.48
2018-03-24T23:04:30.162Z,94626.97
2018-03-24T23:06:59.620Z,94625.62
2018-03-24T23:09:29.122Z,94627.73
2018-03-24T23:11:59.519Z,94632.58
2018-03-24T23:14:29.009Z,94632.21
2018-03-24T23:16:59.834Z,94636.59
2018-03-24T23:19:29.307Z,94636.48
2018-03-24T23:21:58.802Z,94640.53
2018-03-24T23:24:28.266Z,94644.57
2018-03-24T23:26:57.749Z,94645.18
2018-03-24T23:33:03.616Z,94649.16
2018-03-24T23:35:33.470Z,94657.64
2018-03-24T23:38:03.430Z,94654.91
2018-03-24T23:40:32.706Z,94663.24
2018-03-24T23:43:02.155Z,94668.52
2018-03-24T23:45:32.042Z,94661.59
2018-03-24T23:48:01.500Z,94658.45
2018-03-24T23:50:30.977Z,94658.66
2018-03-24T23:53:00.472Z,94654.80
2018-03-24T23:55:30.344Z,94652.27
2018-03-24T23:57:59.856Z,94653.98
